Time;durP1;ratioP1;P1;durP2;ratioP2;P2;SDS_P1;SDS_P2;PMS_P1;PMS_P2;Temp;Humidity;BMP_temperature;BMP_pressure;BME280_temperature;BME280_humidity;BME280_pressure;Samples;Min_cycle;Max_cycle;Signal;HPM_P1;HPM_P2
2021/12/15 00:00:38;;;;;;;29.14;12.85;;;;;;;4.95;98.34;100755.50;2278839;67;22342;-76
2021/12/15 00:03:42;;;;;;;24.71;12.32;;;;;;;4.90;98.31;100757.88;2279965;70;20583;-76
2021/12/15 00:06:45;;;;;;;23.88;12.66;;;;;;;4.93;98.56;100763.16;2279203;70;20334;-76
2021/12/15 00:09:48;;;;;;;25.56;13.52;;;;;;;4.95;98.59;100765.78;2279896;70;20298;-76
2021/12/15 00:12:52;;;;;;;26.25;12.66;;;;;;;4.94;98.50;100769.19;2279971;70;20299;-76
2021/12/15 00:15:54;;;;;;;22.96;12.20;;;;;;;4.93;98.58;100760.59;2279135;67;21262;-76
2021/12/15 00:18:57;;;;;;;23.77;11.89;;;;;;;4.95;98.61;100756.38;2280289;70;20869;-76
2021/12/15 00:22:00;;;;;;;26.04;12.88;;;;;;;4.97;98.66;100756.44;2282044;70;20824;-77
2021/12/15 00:25:05;;;;;;;24.08;12.34;;;;;;;4.97;98.61;100743.56;2281190;70;20303;-76
2021/12/15 00:28:09;;;;;;;22.39;12.20;;;;;;;4.96;98.64;100745.25;2282112;70;20318;-76
2021/12/15 00:31:13;;;;;;;28.17;11.71;;;;;;;4.97;98.66;100739.28;2279605;67;22698;-76
2021/12/15 00:34:16;;;;;;;23.05;11.68;;;;;;;4.97;98.69;100741.88;2278672;69;20310;-76
2021/12/15 00:37:20;;;;;;;21.21;12.11;;;;;;;5.00;98.74;100741.97;2280772;70;20476;-76
2021/12/15 00:40:24;;;;;;;21.84;12.00;;;;;;;5.00;98.47;100741.09;2282085;70;20456;-76
2021/12/15 00:43:27;;;;;;;24.36;12.21;;;;;;;4.97;98.51;100740.97;2283609;70;20322;-76
2021/12/15 00:46:30;;;;;;;22.15;11.81;;;;;;;4.97;98.61;100741.88;2280129;67;20407;-76
2021/12/15 00:49:33;;;;;;;24.52;11.60;;;;;;;4.96;98.57;100740.09;2282370;70;20791;-76
2021/12/15 00:52:37;;;;;;;23.85;11.40;;;;;;;4.96;98.57;100740.09;2281227;70;20332;-77
2021/12/15 00:55:43;;;;;;;24.14;12.02;;;;;;;4.94;98.50;100738.28;2282059;70;20319;-76
2021/12/15 00:58:45;;;;;;;20.94;10.68;;;;;;;4.94;98.69;100744.31;2281373;70;20373;-76
2021/12/15 01:01:50;;;;;;;21.80;10.88;;;;;;;4.95;98.65;100747.78;2279569;67;21387;-76
2021/12/15 01:04:53;;;;;;;21.19;12.20;;;;;;;4.94;98.73;100749.47;2281633;70;20345;-77
2021/12/15 01:07:56;;;;;;;18.83;11.30;;;;;;;4.95;98.82;100750.34;2281588;70;20291;-76
2021/12/15 01:11:21;;;;;;;18.81;11.23;;;;;;;4.96;98.90;100746.94;2281743;70;20343;-77
2021/12/15 01:20:57;;;;;;;20.15;10.38;;;;;;;4.95;98.93;100763.22;2281130;70;20944;-76
2021/12/15 01:24:00;;;;;;;17.23;10.48;;;;;;;4.96;99.01;100760.69;2280393;70;20338;-76
2021/12/15 01:27:03;;;;;;;22.85;11.43;;;;;;;4.98;98.94;100753.03;2280602;70;20311;-76
2021/12/15 01:30:08;;;;;;;19.69;11.25;;;;;;;4.97;98.89;100751.28;2279296;70;20326;-76
2021/12/15 01:33:12;;;;;;;18.46;10.63;;;;;;;4.98;98.92;100753.91;2283384;67;22350;-77
2021/12/15 01:36:15;;;;;;;19.25;11.54;;;;;;;4.97;98.82;100749.59;2282440;70;20346;-76
2021/12/15 01:39:18;;;;;;;20.13;10.94;;;;;;;4.98;98.96;100755.59;2280384;70;20311;-76
2021/12/15 01:42:28;;;;;;;20.71;11.11;;;;;;;5.00;99.00;100756.53;2282286;70;20336;-77
2021/12/15 01:48:58;;;;;;;19.88;10.98;;;;;;;4.97;98.95;100761.56;2280313;70;20323;-76
2021/12/15 01:52:03;;;;;;;;;;;;;;;4.99;98.98;100768.53;2281737;70;20347;-76
2021/12/15 01:58:21;;;;;;;20.54;9.98;;;;;;;4.98;98.95;100771.06;2270617;70;20321;-77
2021/12/15 02:01:25;;;;;;;18.66;10.11;;;;;;;4.96;98.98;100767.53;2266588;67;22739;-77
2021/12/15 02:04:29;;;;;;;19.27;10.71;;;;;;;4.98;99.11;100768.47;2267717;70;20350;-78
2021/12/15 02:07:32;;;;;;;17.69;10.32;;;;;;;4.99;99.12;100765.09;2267856;70;20301;-77
2021/12/15 02:10:38;;;;;;;22.20;11.06;;;;;;;4.98;99.11;100764.22;2268784;70;20694;-77
2021/12/15 02:13:41;;;;;;;17.61;10.34;;;;;;;5.00;99.10;100770.28;2267369;70;20297;-78
2021/12/15 02:16:43;;;;;;;21.29;10.81;;;;;;;5.01;99.11;100761.75;2266450;68;21171;-77
2021/12/15 02:19:47;;;;;;;19.73;10.65;;;;;;;5.01;99.11;100760.88;2268856;70;20350;-77
2021/12/15 02:22:49;;;;;;;18.30;10.25;;;;;;;4.99;99.06;100763.38;2267018;70;21284;-78
2021/12/15 02:25:52;;;;;;;16.09;9.24;;;;;;;5.01;99.14;100766.03;2267516;70;20320;-77
2021/12/15 02:28:59;;;;;;;18.55;10.21;;;;;;;5.03;99.19;100764.41;2268310;70;20339;-77
2021/12/15 02:32:17;;;;;;;19.27;10.74;;;;;;;5.01;99.02;100758.28;2267961;68;21967;-77
2021/12/15 02:38:43;;;;;;;19.41;10.41;;;;;;;5.02;99.17;100760.06;2269433;70;20226;-77
2021/12/15 02:41:47;;;;;;;20.44;11.39;;;;;;;5.02;99.15;100758.34;2267101;70;20389;-78
2021/12/15 02:44:50;;;;;;;19.95;10.69;;;;;;;5.03;99.10;100749.84;2264779;70;20996;-77
2021/12/15 02:47:54;;;;;;;20.76;11.14;;;;;;;5.02;99.07;100753.22;2266322;67;20316;-77
2021/12/15 02:50:57;;;;;;;20.45;10.38;;;;;;;5.04;99.23;100753.31;2267464;70;20309;-77
2021/12/15 02:54:00;;;;;;;19.04;11.04;;;;;;;5.06;99.21;100749.09;2268824;70;20415;-77
2021/12/15 02:57:09;;;;;;;20.38;11.23;;;;;;;5.07;99.17;100759.44;2267889;70;20387;-77
2021/12/15 03:00:18;;;;;;;20.31;11.50;;;;;;;5.05;99.11;100758.50;2266158;70;20317;-77
2021/12/15 03:06:54;;;;;;;20.27;10.81;;;;;;;5.03;98.99;100760.16;2269344;70;20214;-77
2021/12/15 03:16:42;;;;;;;18.79;9.71;;;;;;;4.97;99.18;100744.44;2267900;68;23568;-77
2021/12/15 03:19:44;;;;;;;18.50;10.35;;;;;;;4.98;99.27;100756.47;2267476;70;20379;-77
2021/12/15 03:22:49;;;;;;;21.77;10.86;;;;;;;4.99;99.34;100755.66;2269600;70;20324;-77
2021/12/15 03:25:53;;;;;;;17.23;10.49;;;;;;;5.00;99.27;100754.84;2268069;70;20470;-77
2021/12/15 03:36:34;;;;;;;17.74;10.24;;;;;;;5.05;99.18;100755.06;2268228;70;20337;-77
2021/12/15 03:39:35;;;;;;;18.48;11.04;;;;;;;5.05;99.06;100752.47;2265925;70;20322;-77
2021/12/15 03:43:07;;;;;;;19.70;10.15;;;;;;;5.01;98.81;100755.72;2267992;70;20176;-77
2021/12/15 03:46:14;;;;;;;18.10;10.10;;;;;;;4.99;98.77;100759.94;2252177;70;20317;-77
2021/12/15 03:49:18;;;;;;;22.60;11.13;;;;;;;4.97;98.76;100751.28;2269706;70;20336;-78
2021/12/15 03:52:21;;;;;;;18.01;10.26;;;;;;;4.96;98.79;100752.09;2269521;70;20322;-77
2021/12/15 03:55:29;;;;;;;19.04;10.98;;;;;;;4.96;98.82;100749.53;2268902;70;20313;-77
2021/12/15 03:58:31;;;;;;;19.50;10.31;;;;;;;4.96;98.84;100752.97;2268641;70;20360;-77
2021/12/15 04:01:34;;;;;;;20.56;10.77;;;;;;;4.96;98.76;100760.69;2267845;67;25128;-78
2021/12/15 04:04:39;;;;;;;17.40;10.11;;;;;;;4.96;98.73;100758.13;2267888;70;20293;-77
2021/12/15 04:07:42;;;;;;;16.45;9.88;;;;;;;4.96;98.65;100759.81;2268525;70;20301;-77
2021/12/15 04:10:45;;;;;;;19.77;10.76;;;;;;;4.95;98.59;100752.91;2266273;70;20317;-77
2021/12/15 04:13:48;;;;;;;16.58;10.00;;;;;;;4.88;98.36;100756.94;2271180;70;20379;-77
2021/12/15 04:17:06;;;;;;;20.66;10.02;;;;;;;4.86;98.46;100756.03;2265065;68;22684;-77
2021/12/15 04:20:13;;;;;;;17.89;9.27;;;;;;;4.82;98.44;100754.97;2266072;70;20317;-77
2021/12/15 04:23:20;;;;;;;16.88;9.76;;;;;;;4.78;98.48;100765.09;2267752;70;20308;-77
2021/12/15 04:26:24;;;;;;;15.98;9.40;;;;;;;4.78;98.63;100762.53;2267043;70;20418;-76
2021/12/15 04:29:29;;;;;;;15.82;9.24;;;;;;;4.75;98.62;100763.28;2265980;70;20387;-77
2021/12/15 04:32:39;;;;;;;16.27;9.73;;;;;;;4.74;98.64;100763.22;2266602;67;22064;-76
2021/12/15 04:35:42;;;;;;;17.04;9.34;;;;;;;4.71;98.63;100768.25;2268974;70;20333;-77
2021/12/15 04:38:45;;;;;;;15.85;8.46;;;;;;;4.69;98.68;100769.88;2267277;70;20354;-77
2021/12/15 04:41:52;;;;;;;15.57;9.29;;;;;;;4.67;98.82;100769.81;2267428;70;20349;-77
2021/12/15 04:44:56;;;;;;;14.31;8.86;;;;;;;4.67;98.91;100774.97;2267943;70;20297;-76
2021/12/15 04:47:59;;;;;;;12.04;8.45;;;;;;;4.66;98.89;100770.63;2264779;67;20843;-77
2021/12/15 04:51:03;;;;;;;14.45;8.70;;;;;;;4.63;98.86;100775.63;2266629;70;20297;-76
2021/12/15 04:54:07;;;;;;;14.46;9.44;;;;;;;4.64;99.02;100773.94;2267455;70;20301;-77
2021/12/15 04:57:12;;;;;;;14.14;8.70;;;;;;;4.65;99.08;100778.28;2268045;70;20453;-77
2021/12/15 05:00:21;;;;;;;13.45;8.54;;;;;;;4.63;99.07;100773.06;2266237;70;20304;-77
2021/12/15 05:03:24;;;;;;;11.68;8.59;;;;;;;4.65;99.23;100770.56;2266802;70;20338;-77
2021/12/15 05:06:27;;;;;;;14.01;8.91;;;;;;;4.66;99.11;100772.31;2267559;70;20190;-77
2021/12/15 05:09:30;;;;;;;16.92;9.00;;;;;;;4.65;99.10;100775.69;2268480;70;20407;-77
2021/12/15 05:12:32;;;;;;;16.50;10.01;;;;;;;4.63;99.11;100775.63;2267340;70;20334;-77
2021/12/15 05:15:36;;;;;;;23.24;11.69;;;;;;;4.63;99.09;100773.06;2264616;67;22193;-76
2021/12/15 05:18:39;;;;;;;21.77;11.09;;;;;;;4.61;99.11;100766.09;2267540;70;20327;-76
2021/12/15 05:21:42;;;;;;;22.51;11.41;;;;;;;4.58;99.04;100769.44;2266788;70;20323;-76
2021/12/15 05:24:44;;;;;;;26.21;12.77;;;;;;;4.58;99.11;100779.72;2267321;70;20317;-77
2021/12/15 05:27:48;;;;;;;22.71;12.11;;;;;;;4.58;99.09;100786.56;2268094;70;20450;-77
2021/12/15 05:30:51;;;;;;;26.50;13.07;;;;;;;4.55;98.98;100784.75;2265571;68;26128;-76
2021/12/15 05:33:54;;;;;;;24.04;12.70;;;;;;;4.52;99.02;100777.78;2267809;70;20768;-77
2021/12/15 05:36:57;;;;;;;25.86;13.50;;;;;;;4.53;99.21;100781.22;2269635;70;20305;-77
2021/12/15 05:40:00;;;;;;;22.17;11.94;;;;;;;4.53;99.22;100782.09;2268286;70;20339;-77
2021/12/15 05:43:04;;;;;;;23.26;12.09;;;;;;;4.52;99.14;100787.19;2267231;70;20350;-76
2021/12/15 05:46:06;;;;;;;23.02;11.86;;;;;;;4.50;99.13;100786.25;2265659;67;21772;-77
2021/12/15 05:49:09;;;;;;;27.61;13.07;;;;;;;4.48;99.15;100788.72;2267811;70;21440;-77
2021/12/15 05:52:12;;;;;;;25.96;12.86;;;;;;;4.47;99.13;100791.22;2268110;70;20877;-77
2021/12/15 05:55:16;;;;;;;27.34;13.82;;;;;;;4.45;99.11;100795.44;2268147;70;20317;-77
2021/12/15 05:58:19;;;;;;;27.85;13.46;;;;;;;4.43;99.13;100792.81;2267508;70;21076;-76
2021/12/15 06:01:21;;;;;;;26.39;12.76;;;;;;;4.42;99.24;100800.44;2266292;68;21900;-77
2021/12/15 06:04:24;;;;;;;23.89;10.82;;;;;;;4.43;99.30;100807.34;2267615;70;20872;-77
2021/12/15 06:07:27;;;;;;;21.60;12.30;;;;;;;4.42;99.30;100803.03;2268175;70;20340;-77
2021/12/15 06:10:30;;;;;;;20.30;11.25;;;;;;;4.40;99.28;100809.81;2265996;70;20335;-76
2021/12/15 06:13:33;;;;;;;19.55;10.64;;;;;;;4.40;99.28;100820.09;2267192;70;20389;-77
2021/12/15 06:16:36;;;;;;;24.10;11.84;;;;;;;4.40;99.35;100822.66;2266165;67;20387;-76
2021/12/15 06:19:39;;;;;;;18.23;11.81;;;;;;;4.41;99.29;100819.28;2267324;70;20309;-76
2021/12/15 06:22:44;;;;;;;17.36;11.09;;;;;;;4.37;99.14;100825.09;2267317;70;20346;-76
2021/12/15 06:25:53;;;;;;;19.49;10.84;;;;;;;4.36;99.16;100825.91;2267131;70;20362;-77
2021/12/15 06:28:55;;;;;;;17.37;10.71;;;;;;;4.35;99.20;100827.59;2267457;70;20335;-76
2021/12/15 06:31:58;;;;;;;18.61;11.30;;;;;;;4.35;99.17;100832.75;2265627;68;21301;-77
2021/12/15 06:35:00;;;;;;;18.42;11.69;;;;;;;4.36;99.11;100833.63;2268433;70;20309;-76
2021/12/15 06:38:05;;;;;;;19.17;11.64;;;;;;;4.34;98.97;100825.84;2268369;70;20347;-77
2021/12/15 06:41:08;;;;;;;17.04;10.57;;;;;;;4.33;98.86;100833.50;2267135;70;20788;-77
2021/12/15 06:44:13;;;;;;;19.04;10.94;;;;;;;4.32;98.85;100840.34;2269339;70;20791;-76
2021/12/15 06:47:39;;;;;;;16.34;9.91;;;;;;;4.31;98.77;100840.25;2260034;67;21529;-77
2021/12/15 07:00:34;;;;;;;13.04;8.89;;;;;;;4.33;98.80;100849.81;2265813;70;20329;-77
2021/12/15 07:03:36;;;;;;;13.24;8.85;;;;;;;4.31;98.70;100855.66;2265524;70;20296;-77
2021/12/15 07:06:39;;;;;;;10.48;8.45;;;;;;;4.28;98.56;100858.97;2266099;70;20407;-77
2021/12/15 07:09:42;;;;;;;13.82;9.09;;;;;;;4.26;98.47;100860.63;2267611;70;20775;-77
2021/12/15 07:12:45;;;;;;;10.74;8.24;;;;;;;4.28;98.73;100861.56;2267611;70;20552;-76
2021/12/15 07:15:52;;;;;;;10.16;7.95;;;;;;;4.28;98.63;100871.84;2265405;68;21260;-76
2021/12/15 07:19:08;;;;;;;12.40;8.54;;;;;;;4.31;98.85;100868.53;2266734;70;20634;-77
2021/12/15 07:22:28;;;;;;;10.46;8.20;;;;;;;4.34;98.82;100871.25;2266839;70;20620;-77
2021/12/15 07:25:31;;;;;;;10.60;7.64;;;;;;;4.32;98.65;100873.75;2266736;70;20285;-76
2021/12/15 07:28:34;;;;;;;11.45;8.41;;;;;;;4.33;98.65;100875.53;2265668;70;20349;-77
2021/12/15 07:31:37;;;;;;;12.79;8.09;;;;;;;4.34;98.56;100881.53;2266541;68;21027;-77
2021/12/15 07:34:40;;;;;;;10.21;7.38;;;;;;;4.35;98.57;100881.59;2266689;70;20324;-77
2021/12/15 07:37:43;;;;;;;12.20;8.31;;;;;;;4.36;98.46;100883.38;2262510;70;20450;-79
2021/12/15 07:40:48;;;;;;;13.75;8.55;;;;;;;4.39;98.42;100892.91;2268973;70;20313;-80
2021/12/15 07:43:53;;;;;;;10.80;8.21;;;;;;;4.42;98.46;100893.03;2266759;70;20383;-77
2021/12/15 07:47:16;;;;;;;12.35;8.50;;;;;;;4.44;98.38;100902.56;2265124;68;21189;-77
2021/12/15 07:50:19;;;;;;;11.60;9.24;;;;;;;4.45;98.38;100898.31;2269200;70;20317;-78
2021/12/15 07:53:22;;;;;;;11.34;8.14;;;;;;;4.49;98.43;100907.94;2267684;70;20301;-79
2021/12/15 07:56:25;;;;;;;8.39;7.22;;;;;;;4.52;98.35;100910.66;2266367;70;20368;-79
2021/12/15 07:59:28;;;;;;;9.41;7.78;;;;;;;4.53;98.32;100908.13;2264557;70;20377;-77
2021/12/15 08:02:30;;;;;;;10.79;7.65;;;;;;;4.57;98.30;100911.72;2264411;67;21606;-77
2021/12/15 08:05:35;;;;;;;9.45;7.85;;;;;;;4.60;98.45;100914.41;2266125;70;20301;-79
2021/12/15 08:08:37;;;;;;;9.85;8.07;;;;;;;4.65;98.39;100912.91;2265517;70;20326;-80
2021/12/15 08:11:40;;;;;;;11.06;7.78;;;;;;;4.70;98.37;100918.28;2266466;70;20309;-78
2021/12/15 08:14:43;;;;;;;11.45;7.91;;;;;;;4.74;98.32;100909.88;2263772;70;20304;-78
2021/12/15 08:17:50;;;;;;;13.25;9.20;;;;;;;4.76;98.11;100915.97;2264638;67;23674;-79
2021/12/15 08:20:54;;;;;;;12.16;9.14;;;;;;;4.80;98.12;100920.44;2269353;70;20434;-79
2021/12/15 08:23:57;;;;;;;12.77;9.23;;;;;;;4.84;98.08;100917.16;2269792;70;20301;-79
2021/12/15 08:27:00;;;;;;;15.13;10.51;;;;;;;4.87;97.87;100919.00;2266772;70;20779;-78
2021/12/15 08:30:06;;;;;;;15.64;9.90;;;;;;;4.90;97.79;100919.13;2264848;70;20312;-77
2021/12/15 08:33:14;;;;;;;21.66;11.68;;;;;;;4.95;97.83;100927.94;2267494;67;21368;-80
2021/12/15 08:36:17;;;;;;;17.36;11.19;;;;;;;4.96;97.52;100930.56;2266044;70;20874;-77
2021/12/15 08:39:21;;;;;;;18.63;11.51;;;;;;;4.92;97.29;100930.38;2266281;70;20297;-77
2021/12/15 08:42:24;;;;;;;24.96;13.23;;;;;;;4.96;97.54;100933.13;2265190;70;20331;-77
2021/12/15 08:45:28;;;;;;;21.10;13.01;;;;;;;4.97;97.25;100941.75;2265233;67;21846;-77
2021/12/15 08:48:37;;;;;;;20.54;12.43;;;;;;;5.02;97.42;100935.09;2265205;70;20301;-77
2021/12/15 08:51:40;;;;;;;24.24;13.77;;;;;;;5.08;97.44;100931.09;2266424;70;20313;-77
2021/12/15 08:54:43;;;;;;;24.66;13.80;;;;;;;5.10;97.20;100934.63;2266259;70;20334;-77
2021/12/15 08:57:49;;;;;;;20.61;12.41;;;;;;;5.15;97.29;100935.69;2266301;70;20301;-77
2021/12/15 09:00:53;;;;;;;26.14;13.68;;;;;;;5.17;97.11;100928.00;2265444;68;22602;-77
2021/12/15 09:03:57;;;;;;;26.45;14.66;;;;;;;5.19;97.12;100931.53;2265805;70;20360;-77
2021/12/15 09:07:00;;;;;;;28.25;15.20;;;;;;;5.21;96.85;100931.63;2266331;70;20827;-77
2021/12/15 09:10:05;;;;;;;27.55;14.06;;;;;;;5.22;96.63;100926.53;2266319;70;20309;-77
2021/12/15 09:13:10;;;;;;;28.38;14.80;;;;;;;5.25;96.52;100936.97;2265096;70;20407;-77
2021/12/15 09:16:13;;;;;;;25.49;15.27;;;;;;;5.29;96.62;100943.09;2264837;68;21127;-77
2021/12/15 09:19:16;;;;;;;24.81;15.00;;;;;;;5.34;96.59;100933.88;2265594;70;20305;-77
2021/12/15 09:22:19;;;;;;;24.46;14.41;;;;;;;5.40;96.43;100939.28;2267267;70;20353;-77
2021/12/15 09:25:22;;;;;;;27.02;16.01;;;;;;;5.43;96.23;100937.72;2266359;70;20928;-77
2021/12/15 09:28:25;;;;;;;24.60;14.21;;;;;;;5.47;96.01;100942.16;2265804;70;20391;-77
2021/12/15 09:31:28;;;;;;;19.40;14.04;;;;;;;5.56;96.02;100935.63;2263920;68;23014;-77
2021/12/15 09:34:32;;;;;;;21.44;14.71;;;;;;;5.63;95.90;100942.78;2264196;70;21256;-77
2021/12/15 09:37:35;;;;;;;21.08;13.61;;;;;;;5.67;95.76;100940.41;2265173;70;20886;-77
2021/12/15 09:40:40;;;;;;;21.71;13.15;;;;;;;5.76;95.64;100935.63;2263945;70;20321;-76
2021/12/15 09:43:43;;;;;;;19.94;13.71;;;;;;;5.86;95.52;100934.28;2265017;70;20313;-77
2021/12/15 10:03:17;;;;;;;15.04;10.09;;;;;;;6.36;93.57;100950.84;2265204;68;22707;-77
2021/12/15 10:06:31;;;;;;;12.15;9.81;;;;;;;6.38;93.05;100943.16;2266299;70;20977;-77
2021/12/15 10:19:37;;;;;;;14.02;10.96;;;;;;;6.46;91.70;100949.47;2262341;70;20297;-75
2021/12/15 10:22:44;;;;;;;14.84;10.14;;;;;;;6.48;91.38;100945.28;2263030;70;20363;-74
2021/12/15 10:25:49;;;;;;;12.65;9.43;;;;;;;6.50;91.25;100952.25;2261926;70;20435;-74
2021/12/15 10:28:53;;;;;;;13.13;10.01;;;;;;;6.53;90.99;100949.78;2263547;70;20384;-75
2021/12/15 10:32:02;;;;;;;11.68;8.52;;;;;;;6.53;90.74;100946.31;2262145;68;20748;-74
2021/12/15 10:35:19;;;;;;;10.51;8.85;;;;;;;6.56;90.66;100955.03;2262180;70;20546;-74
2021/12/15 10:38:29;;;;;;;10.99;9.07;;;;;;;6.59;90.49;100944.81;2263281;70;20369;-75
2021/12/15 10:41:42;;;;;;;12.23;7.91;;;;;;;6.60;90.14;100940.53;2263065;70;20371;-75
2021/12/15 10:44:45;;;;;;;9.81;8.45;;;;;;;6.62;90.18;100944.94;2263254;70;20338;-75
2021/12/15 10:47:51;;;;;;;14.43;9.16;;;;;;;6.67;89.96;100945.13;2260964;68;24330;-74
2021/12/15 10:50:54;;;;;;;10.89;8.90;;;;;;;6.72;90.03;100937.53;2262762;70;20325;-74
2021/12/15 10:54:05;;;;;;;12.65;8.35;;;;;;;6.76;89.95;100929.94;2262474;70;20342;-74
2021/12/15 10:57:18;;;;;;;10.04;8.39;;;;;;;6.82;89.67;100929.28;2263044;70;20318;-74
2021/12/15 11:00:22;;;;;;;9.99;8.56;;;;;;;6.88;89.46;100932.97;2259655;67;23870;-75
2021/12/15 11:03:36;;;;;;;10.07;8.32;;;;;;;6.94;89.35;100922.84;2263801;70;21376;-76
2021/12/15 11:07:15;;;;;;;9.76;7.81;;;;;;;7.00;89.13;100926.47;2262462;70;20403;-76
2021/12/15 11:10:21;;;;;;;8.84;7.74;;;;;;;7.05;88.96;100915.47;2262213;70;20344;-76
2021/12/15 11:13:30;;;;;;;10.90;7.88;;;;;;;7.10;88.66;100913.94;2263105;70;20308;-76
2021/12/15 11:16:34;;;;;;;9.70;8.01;;;;;;;7.13;88.24;100918.31;2261198;68;22166;-75
2021/12/15 11:19:55;;;;;;;10.32;7.74;;;;;;;7.16;88.03;100916.69;2262823;70;20202;-75
2021/12/15 11:23:16;;;;;;;8.57;6.96;;;;;;;7.23;88.30;100915.22;2267563;70;20352;-75
2021/12/15 11:26:18;;;;;;;6.00;4.85;;;;;;;7.26;88.10;100908.44;2262905;70;20479;-75
2021/12/15 11:29:40;;;;;;;5.47;4.93;;;;;;;7.25;87.75;100904.13;2267778;70;20317;-75
2021/12/15 11:32:46;;;;;;;6.00;5.00;;;;;;;7.29;87.74;100892.16;2261162;68;25216;-76
2021/12/15 11:35:55;;;;;;;5.71;4.99;;;;;;;7.40;87.90;100900.28;2264335;70;20399;-76
2021/12/15 11:39:03;;;;;;;8.34;5.17;;;;;;;7.53;87.74;100900.69;2263529;70;20354;-76
2021/12/15 11:42:07;;;;;;;;;;;;;;;7.61;86.95;100900.97;2263385;70;20618;-76
2021/12/15 11:45:12;;;;;;;4.65;4.25;;;;;;;7.63;86.57;100901.88;2262121;70;20162;-76
2021/12/15 11:48:22;;;;;;;4.79;4.38;;;;;;;7.70;86.16;100902.94;2262970;67;22013;-76
2021/12/15 11:51:32;;;;;;;4.75;4.31;;;;;;;7.76;86.25;100904.03;2263722;70;20309;-76
2021/12/15 11:54:44;;;;;;;6.30;5.35;;;;;;;7.88;86.08;100904.41;2262569;70;20305;-76
2021/12/15 11:57:46;;;;;;;4.84;4.34;;;;;;;7.96;85.63;100898.59;2264140;70;20752;-77
2021/12/15 12:00:49;;;;;;;4.96;4.36;;;;;;;8.03;85.11;100898.81;2262610;70;22653;-76
2021/12/15 12:04:13;;;;;;;4.76;3.60;;;;;;;8.09;84.89;100899.03;2263077;70;20352;-76
2021/12/15 12:07:31;;;;;;;3.95;3.55;;;;;;;8.07;84.48;100887.72;2264618;70;20321;-75
2021/12/15 12:10:44;;;;;;;4.09;3.69;;;;;;;8.04;84.16;100889.34;2263942;70;20823;-76
2021/12/15 12:13:49;;;;;;;3.63;3.31;;;;;;;7.99;84.05;100885.75;2265313;70;20316;-76
2021/12/15 12:16:52;;;;;;;4.25;3.88;;;;;;;8.00;84.17;100890.97;2263739;68;21073;-76
2021/12/15 12:20:06;;;;;;;3.74;3.44;;;;;;;8.04;84.23;100879.88;2265943;70;20430;-75
2021/12/15 12:23:13;;;;;;;3.75;3.41;;;;;;;8.12;84.40;100887.88;2263988;70;20421;-77
2021/12/15 12:26:19;;;;;;;3.69;3.39;;;;;;;8.18;84.10;100881.16;2264101;70;20840;-77
2021/12/15 12:29:22;;;;;;;4.13;2.94;;;;;;;8.23;83.94;100881.28;2263777;70;20338;-77
2021/12/15 12:32:25;;;;;;;3.91;3.34;;;;;;;8.25;83.75;100877.03;2260182;68;22048;-74
2021/12/15 12:35:32;;;;;;;3.95;3.42;;;;;;;8.27;83.67;100880.56;2263597;70;20306;-75
2021/12/15 12:38:37;;;;;;;3.24;3.04;;;;;;;8.23;83.24;100873.53;2262418;70;20332;-74
2021/12/15 12:41:44;;;;;;;4.68;4.11;;;;;;;8.19;83.14;100880.31;2262066;70;20362;-75
2021/12/15 12:44:50;;;;;;;4.81;4.30;;;;;;;8.18;83.57;100881.16;2262155;70;20370;-74
2021/12/15 13:01:34;;;;;;;8.09;5.16;;;;;;;8.06;83.79;100870.44;2262137;67;21137;-75
2021/12/15 13:04:40;;;;;;;7.89;5.06;;;;;;;8.04;83.98;100871.25;2263070;70;20321;-74
2021/12/15 13:07:52;;;;;;;6.04;4.64;;;;;;;8.04;84.29;100872.13;2263006;70;20350;-74
2021/12/15 13:11:06;;;;;;;6.69;5.05;;;;;;;8.06;84.58;100869.56;2262702;70;20316;-75
2021/12/15 13:14:18;;;;;;;5.64;4.59;;;;;;;8.06;84.49;100865.28;2262794;70;20334;-75
2021/12/15 13:17:26;;;;;;;4.76;4.00;;;;;;;8.05;84.16;100870.41;2260489;67;20959;-74
2021/12/15 13:20:34;;;;;;;5.38;4.03;;;;;;;8.07;84.22;100866.16;2262292;70;20309;-75
2021/12/15 13:23:46;;;;;;;5.55;3.24;;;;;;;8.04;84.21;100856.59;2261947;70;20184;-74
2021/12/15 13:30:49;;;;;;;3.67;3.35;;;;;;;8.11;84.22;100855.09;2260594;70;21122;-75
2021/12/15 13:33:56;;;;;;;5.90;4.05;;;;;;;8.13;84.06;100848.25;2262573;70;20454;-74
2021/12/15 13:36:59;;;;;;;4.45;4.00;;;;;;;8.14;83.85;100848.28;2262405;70;20928;-75
2021/12/15 13:40:04;;;;;;;5.28;4.30;;;;;;;8.18;83.84;100852.69;2262189;70;20333;-75
2021/12/15 13:43:38;;;;;;;3.39;3.09;;;;;;;8.17;83.72;100850.06;2261554;70;20293;-74
2021/12/15 13:46:48;;;;;;;3.60;3.30;;;;;;;8.14;83.59;100850.00;2261407;67;20981;-74
2021/12/15 13:49:58;;;;;;;3.66;3.04;;;;;;;8.14;83.65;100852.59;2262134;70;20331;-75
2021/12/15 13:53:03;;;;;;;3.42;3.13;;;;;;;8.12;83.58;100846.50;2263592;70;20313;-77
2021/12/15 13:56:05;;;;;;;3.34;3.03;;;;;;;8.13;83.74;100845.66;2266183;70;20324;-77
2021/12/15 13:59:33;;;;;;;4.39;3.21;;;;;;;8.13;83.94;100846.53;2262763;70;20339;-76
2021/12/15 14:02:42;;;;;;;4.28;3.24;;;;;;;8.12;83.44;100836.13;2261715;68;20293;-75
2021/12/15 14:06:02;;;;;;;3.30;3.00;;;;;;;8.09;83.22;100841.22;2263256;70;20390;-76
2021/12/15 14:09:06;;;;;;;4.72;3.21;;;;;;;8.09;83.57;100849.88;2263213;70;20297;-76
2021/12/15 14:12:08;;;;;;;3.79;3.33;;;;;;;8.06;83.48;100857.50;2262758;70;20331;-79
2021/12/15 14:15:41;;;;;;;4.21;3.42;;;;;;;8.06;83.77;100854.06;2262464;70;20290;-75
2021/12/15 14:18:43;;;;;;;3.33;3.01;;;;;;;8.00;83.22;100856.47;2263771;70;20847;-75
2021/12/15 14:21:47;;;;;;;4.07;3.67;;;;;;;7.99;83.05;100858.19;2262410;70;20320;-76
2021/12/15 14:24:54;;;;;;;3.78;3.39;;;;;;;7.97;83.31;100859.84;2263494;70;20828;-77
2021/12/15 14:28:05;;;;;;;4.74;3.49;;;;;;;7.98;83.29;100863.31;2263950;70;20337;-77
2021/12/15 14:31:18;;;;;;;3.55;3.21;;;;;;;7.94;83.71;100858.88;2261292;70;20402;-77
2021/12/15 14:34:31;;;;;;;4.26;3.51;;;;;;;7.91;84.07;100856.22;2264186;70;20418;-74
2021/12/15 14:37:33;;;;;;;4.22;3.40;;;;;;;7.88;83.67;100864.72;2267073;70;20973;-72
2021/12/15 14:40:36;;;;;;;4.31;3.86;;;;;;;7.88;83.75;100864.72;2262895;70;20329;-73
2021/12/15 14:43:39;;;;;;;4.75;4.26;;;;;;;7.85;83.37;100865.53;2262120;70;20874;-73
2021/12/15 14:46:52;;;;;;;5.26;3.76;;;;;;;7.83;83.30;100867.19;2260743;68;27029;-73
2021/12/15 14:49:58;;;;;;;3.89;3.47;;;;;;;7.79;83.35;100867.06;2263311;70;20312;-72
2021/12/15 14:53:03;;;;;;;4.19;3.79;;;;;;;7.77;83.05;100871.31;2261259;70;20335;-73
2021/12/15 14:56:06;;;;;;;4.44;3.83;;;;;;;7.76;83.07;100879.88;2262233;70;20761;-73
2021/12/15 14:59:09;;;;;;;4.91;4.01;;;;;;;7.74;83.00;100886.72;2264794;70;20316;-75
2021/12/15 15:02:24;;;;;;;4.16;3.76;;;;;;;7.73;83.21;100883.25;2262997;68;23337;-75
2021/12/15 15:05:31;;;;;;;5.01;3.92;;;;;;;7.70;83.57;100890.91;2264830;70;20357;-76
2021/12/15 15:08:37;;;;;;;3.38;2.97;;;;;;;7.68;83.74;100891.69;2266307;70;20406;-77
2021/12/15 15:12:14;;;;;;;3.47;3.16;;;;;;;7.65;84.39;100901.94;2265861;70;20443;-76
2021/12/15 15:15:26;;;;;;;4.71;3.44;;;;;;;7.60;85.01;100903.50;2264529;70;20387;-77
2021/12/15 15:18:31;;;;;;;4.84;3.41;;;;;;;7.56;85.12;100905.13;2265677;70;20308;-77
2021/12/15 15:21:34;;;;;;;3.76;3.46;;;;;;;7.51;85.29;100912.69;2264613;70;20406;-76
2021/12/15 15:24:37;;;;;;;4.79;3.45;;;;;;;7.49;85.69;100908.31;2265979;70;20328;-77
2021/12/15 15:27:43;;;;;;;3.72;3.24;;;;;;;7.48;86.22;100907.44;2265402;70;20767;-76
2021/12/15 15:30:48;;;;;;;3.11;2.84;;;;;;;7.44;86.48;100905.59;2264362;68;22378;-77
2021/12/15 15:33:51;;;;;;;3.11;2.83;;;;;;;7.41;86.86;100909.78;2266215;70;20367;-76
2021/12/15 15:36:54;;;;;;;3.21;2.47;;;;;;;7.40;87.32;100915.78;2265861;70;20340;-76
2021/12/15 15:40:06;;;;;;;2.76;2.35;;;;;;;7.38;87.73;100914.88;2266938;70;20390;-76
2021/12/15 15:43:14;;;;;;;3.36;2.40;;;;;;;7.34;88.11;100908.69;2265480;70;20361;-76
2021/12/15 15:46:34;;;;;;;2.71;2.40;;;;;;;7.32;88.24;100912.94;2265117;68;24108;-76
2021/12/15 15:49:47;;;;;;;3.71;2.44;;;;;;;7.28;88.51;100918.84;2266074;70;20313;-76
2021/12/15 15:52:54;;;;;;;3.05;2.78;;;;;;;7.25;88.83;100921.31;2266300;70;20289;-76